sensor_id;sensor_type;location;lat;lon;timestamp;temperature;humidity
66936;DHT22;53847;51.984;5.896;2022-09-09T00:00:15;16.40;84.20
66936;DHT22;53847;51.984;5.896;2022-09-09T00:02:54;16.70;84.30
66936;DHT22;53847;51.984;5.896;2022-09-09T00:05:50;16.60;84.40
66936;DHT22;53847;51.984;5.896;2022-09-09T00:08:24;16.70;84.50
66936;DHT22;53847;51.984;5.896;2022-09-09T00:10:58;16.40;84.30
66936;DHT22;53847;51.984;5.896;2022-09-09T00:13:44;16.40;84.30
66936;DHT22;53847;51.984;5.896;2022-09-09T00:16:27;16.80;85.30
66936;DHT22;53847;51.984;5.896;2022-09-09T00:21:50;16.70;84.40
66936;DHT22;53847;51.984;5.896;2022-09-09T00:24:36;17.10;84.70
66936;DHT22;53847;51.984;5.896;2022-09-09T00:27:16;16.40;84.30
66936;DHT22;53847;51.984;5.896;2022-09-09T00:29:54;16.40;84.40
66936;DHT22;53847;51.984;5.896;2022-09-09T00:32:22;16.70;84.80
66936;DHT22;53847;51.984;5.896;2022-09-09T00:35:03;16.60;84.90
66936;DHT22;53847;51.984;5.896;2022-09-09T00:37:30;16.70;85.00
66936;DHT22;53847;51.984;5.896;2022-09-09T00:40:00;16.70;85.30
66936;DHT22;53847;51.984;5.896;2022-09-09T00:42:40;16.80;85.60
66936;DHT22;53847;51.984;5.896;2022-09-09T00:48:10;16.40;85.40
66936;DHT22;53847;51.984;5.896;2022-09-09T00:50:50;16.40;85.40
66936;DHT22;53847;51.984;5.896;2022-09-09T00:56:25;16.80;85.10
66936;DHT22;53847;51.984;5.896;2022-09-09T00:59:00;16.70;85.10
66936;DHT22;53847;51.984;5.896;2022-09-09T01:01:30;16.70;85.00
66936;DHT22;53847;51.984;5.896;2022-09-09T01:03:56;17.00;85.20
66936;DHT22;53847;51.984;5.896;2022-09-09T01:06:30;16.40;85.00
66936;DHT22;53847;51.984;5.896;2022-09-09T01:09:18;16.90;85.30
66936;DHT22;53847;51.984;5.896;2022-09-09T01:17:19;16.80;85.20
66936;DHT22;53847;51.984;5.896;2022-09-09T01:20:08;16.50;85.10
66936;DHT22;53847;51.984;5.896;2022-09-09T01:28:40;16.40;85.00
66936;DHT22;53847;51.984;5.896;2022-09-09T01:31:17;16.40;84.90
66936;DHT22;53847;51.984;5.896;2022-09-09T01:33:46;16.40;85.00
66936;DHT22;53847;51.984;5.896;2022-09-09T01:38:49;16.30;84.90
66936;DHT22;53847;51.984;5.896;2022-09-09T01:41:17;16.30;85.00
66936;DHT22;53847;51.984;5.896;2022-09-09T01:43:57;16.40;85.10
66936;DHT22;53847;51.984;5.896;2022-09-09T01:46:23;16.10;84.90
66936;DHT22;53847;51.984;5.896;2022-09-09T01:48:52;16.40;85.10
66936;DHT22;53847;51.984;5.896;2022-09-09T01:51:19;16.60;85.20
66936;DHT22;53847;51.984;5.896;2022-09-09T01:53:45;16.20;85.00
66936;DHT22;53847;51.984;5.896;2022-09-09T02:03:57;16.10;85.30
66936;DHT22;53847;51.984;5.896;2022-09-09T02:09:00;15.80;85.00
66936;DHT22;53847;51.984;5.896;2022-09-09T02:11:28;16.10;85.10
66936;DHT22;53847;51.984;5.896;2022-09-09T02:14:23;16.30;85.30
66936;DHT22;53847;51.984;5.896;2022-09-09T02:19:23;16.00;85.20
66936;DHT22;53847;51.984;5.896;2022-09-09T02:22:01;16.00;85.30
66936;DHT22;53847;51.984;5.896;2022-09-09T02:24:30;16.00;85.20
66936;DHT22;53847;51.984;5.896;2022-09-09T02:27:10;16.30;85.40
66936;DHT22;53847;51.984;5.896;2022-09-09T02:29:42;15.90;85.30
66936;DHT22;53847;51.984;5.896;2022-09-09T02:32:23;16.10;85.40
66936;DHT22;53847;51.984;5.896;2022-09-09T02:34:54;15.90;85.20
66936;DHT22;53847;51.984;5.896;2022-09-09T02:37:23;15.70;85.00
66936;DHT22;53847;51.984;5.896;2022-09-09T02:39:53;15.80;85.00
66936;DHT22;53847;51.984;5.896;2022-09-09T02:42:21;15.90;85.10
66936;DHT22;53847;51.984;5.896;2022-09-09T02:44:48;16.00;85.20
66936;DHT22;53847;51.984;5.896;2022-09-09T02:47:35;15.80;85.20
66936;DHT22;53847;51.984;5.896;2022-09-09T02:50:12;15.60;85.30
66936;DHT22;53847;51.984;5.896;2022-09-09T02:55:28;16.00;85.60
66936;DHT22;53847;51.984;5.896;2022-09-09T02:57:58;15.70;85.50
66936;DHT22;53847;51.984;5.896;2022-09-09T03:00:28;15.80;85.40
66936;DHT22;53847;51.984;5.896;2022-09-09T03:02:58;15.80;85.50
66936;DHT22;53847;51.984;5.896;2022-09-09T03:05:25;16.10;85.80
66936;DHT22;53847;51.984;5.896;2022-09-09T03:07:51;15.70;85.70
66936;DHT22;53847;51.984;5.896;2022-09-09T03:10:19;15.70;85.80
66936;DHT22;53847;51.984;5.896;2022-09-09T03:12:45;16.00;86.10
66936;DHT22;53847;51.984;5.896;2022-09-09T03:15:12;15.40;85.90
66936;DHT22;53847;51.984;5.896;2022-09-09T03:17:41;15.40;86.00
66936;DHT22;53847;51.984;5.896;2022-09-09T03:20:08;15.40;86.00
66936;DHT22;53847;51.984;5.896;2022-09-09T03:22:36;15.30;85.90
66936;DHT22;53847;51.984;5.896;2022-09-09T03:25:04;15.60;86.20
66936;DHT22;53847;51.984;5.896;2022-09-09T03:27:30;15.60;86.20
66936;DHT22;53847;51.984;5.896;2022-09-09T03:29:57;15.60;86.20
66936;DHT22;53847;51.984;5.896;2022-09-09T03:32:25;15.60;86.20
66936;DHT22;53847;51.984;5.896;2022-09-09T03:34:51;15.80;86.30
66936;DHT22;53847;51.984;5.896;2022-09-09T03:37:18;15.60;86.20
66936;DHT22;53847;51.984;5.896;2022-09-09T03:39:45;15.60;86.30
66936;DHT22;53847;51.984;5.896;2022-09-09T03:42:13;15.60;86.50
66936;DHT22;53847;51.984;5.896;2022-09-09T03:44:40;15.40;86.30
66936;DHT22;53847;51.984;5.896;2022-09-09T03:47:06;15.90;86.60
66936;DHT22;53847;51.984;5.896;2022-09-09T03:49:33;15.50;86.40
66936;DHT22;53847;51.984;5.896;2022-09-09T03:52:00;15.50;86.60
66936;DHT22;53847;51.984;5.896;2022-09-09T03:54:26;15.50;86.70
66936;DHT22;53847;51.984;5.896;2022-09-09T03:56:52;15.50;86.70
66936;DHT22;53847;51.984;5.896;2022-09-09T03:59:19;15.60;86.80
66936;DHT22;53847;51.984;5.896;2022-09-09T04:01:45;16.00;87.20
66936;DHT22;53847;51.984;5.896;2022-09-09T04:04:11;15.60;87.00
66936;DHT22;53847;51.984;5.896;2022-09-09T04:06:37;15.60;87.00
66936;DHT22;53847;51.984;5.896;2022-09-09T04:09:03;15.60;87.00
66936;DHT22;53847;51.984;5.896;2022-09-09T04:11:31;15.90;87.30
66936;DHT22;53847;51.984;5.896;2022-09-09T04:13:58;15.70;87.30
66936;DHT22;53847;51.984;5.896;2022-09-09T04:16:24;15.40;87.20
66936;DHT22;53847;51.984;5.896;2022-09-09T04:18:51;15.70;87.30
66936;DHT22;53847;51.984;5.896;2022-09-09T04:21:17;15.60;87.30
66936;DHT22;53847;51.984;5.896;2022-09-09T04:23:43;15.90;87.50
66936;DHT22;53847;51.984;5.896;2022-09-09T04:26:10;15.60;87.90
66936;DHT22;53847;51.984;5.896;2022-09-09T04:28:37;15.80;87.30
66936;DHT22;53847;51.984;5.896;2022-09-09T04:31:15;15.80;87.30
66936;DHT22;53847;51.984;5.896;2022-09-09T04:33:43;16.10;87.40
66936;DHT22;53847;51.984;5.896;2022-09-09T04:36:10;16.10;87.40
66936;DHT22;53847;51.984;5.896;2022-09-09T04:38:36;16.00;87.40
66936;DHT22;53847;51.984;5.896;2022-09-09T04:41:04;16.20;87.60
66936;DHT22;53847;51.984;5.896;2022-09-09T04:43:31;15.90;87.50
66936;DHT22;53847;51.984;5.896;2022-09-09T04:45:59;15.80;88.00
66936;DHT22;53847;51.984;5.896;2022-09-09T04:48:25;16.10;87.60
66936;DHT22;53847;51.984;5.896;2022-09-09T04:50:56;15.70;87.40
66936;DHT22;53847;51.984;5.896;2022-09-09T04:53:23;15.50;87.40
66936;DHT22;53847;51.984;5.896;2022-09-09T04:55:49;15.70;87.50
66936;DHT22;53847;51.984;5.896;2022-09-09T04:58:15;15.90;87.60
66936;DHT22;53847;51.984;5.896;2022-09-09T05:00:42;16.20;87.90
66936;DHT22;53847;51.984;5.896;2022-09-09T05:03:08;15.90;88.30
66936;DHT22;53847;51.984;5.896;2022-09-09T05:05:35;16.00;87.80
66936;DHT22;53847;51.984;5.896;2022-09-09T05:08:06;16.00;87.90
66936;DHT22;53847;51.984;5.896;2022-09-09T05:10:33;16.20;88.10
66936;DHT22;53847;51.984;5.896;2022-09-09T05:13:00;16.00;88.10
66936;DHT22;53847;51.984;5.896;2022-09-09T05:15:29;16.20;88.30
66936;DHT22;53847;51.984;5.896;2022-09-09T05:17:59;16.20;88.30
66936;DHT22;53847;51.984;5.896;2022-09-09T05:20:27;16.00;88.40
66936;DHT22;53847;51.984;5.896;2022-09-09T05:22:54;15.90;88.30
66936;DHT22;53847;51.984;5.896;2022-09-09T05:25:22;16.30;88.50
66936;DHT22;53847;51.984;5.896;2022-09-09T05:27:49;16.00;88.40
66936;DHT22;53847;51.984;5.896;2022-09-09T05:30:15;16.20;88.70
66936;DHT22;53847;51.984;5.896;2022-09-09T05:32:41;15.90;88.80
66936;DHT22;53847;51.984;5.896;2022-09-09T05:35:08;16.00;88.90
66936;DHT22;53847;51.984;5.896;2022-09-09T05:37:34;16.10;89.00
66936;DHT22;53847;51.984;5.896;2022-09-09T05:40:00;16.10;89.00
66936;DHT22;53847;51.984;5.896;2022-09-09T05:42:30;16.30;89.10
66936;DHT22;53847;51.984;5.896;2022-09-09T05:44:58;16.10;89.00
66936;DHT22;53847;51.984;5.896;2022-09-09T05:47:25;16.20;89.10
66936;DHT22;53847;51.984;5.896;2022-09-09T05:49:51;16.20;89.20
66936;DHT22;53847;51.984;5.896;2022-09-09T05:52:17;16.50;89.40
66936;DHT22;53847;51.984;5.896;2022-09-09T05:54:43;16.10;89.10
66936;DHT22;53847;51.984;5.896;2022-09-09T05:57:10;16.20;89.30
66936;DHT22;53847;51.984;5.896;2022-09-09T05:59:36;16.60;89.60
66936;DHT22;53847;51.984;5.896;2022-09-09T06:02:02;16.30;89.30
66936;DHT22;53847;51.984;5.896;2022-09-09T06:04:35;16.80;89.60
66936;DHT22;53847;51.984;5.896;2022-09-09T06:07:02;16.70;89.80
66936;DHT22;53847;51.984;5.896;2022-09-09T06:09:29;16.40;90.20
66936;DHT22;53847;51.984;5.896;2022-09-09T06:11:55;16.90;90.80
66936;DHT22;53847;51.984;5.896;2022-09-09T06:14:23;16.90;91.20
66936;DHT22;53847;51.984;5.896;2022-09-09T06:16:51;17.00;91.10
66936;DHT22;53847;51.984;5.896;2022-09-09T06:19:21;17.30;91.00
66936;DHT22;53847;51.984;5.896;2022-09-09T06:21:47;17.60;90.80
66936;DHT22;53847;51.984;5.896;2022-09-09T06:24:14;17.70;90.20
66936;DHT22;53847;51.984;5.896;2022-09-09T06:26:40;18.10;89.90
66936;DHT22;53847;51.984;5.896;2022-09-09T06:29:07;18.40;88.50
66936;DHT22;53847;51.984;5.896;2022-09-09T06:31:35;18.20;87.50
66936;DHT22;53847;51.984;5.896;2022-09-09T06:34:08;18.30;87.60
66936;DHT22;53847;51.984;5.896;2022-09-09T06:36:38;18.60;86.20
66936;DHT22;53847;51.984;5.896;2022-09-09T06:39:06;18.80;85.70
66936;DHT22;53847;51.984;5.896;2022-09-09T06:41:33;18.60;84.40
66936;DHT22;53847;51.984;5.896;2022-09-09T06:44:00;18.30;83.50
66936;DHT22;53847;51.984;5.896;2022-09-09T06:46:39;17.80;82.90
66936;DHT22;53847;51.984;5.896;2022-09-09T06:49:08;18.00;83.30
66936;DHT22;53847;51.984;5.896;2022-09-09T06:51:36;18.10;84.60
66936;DHT22;53847;51.984;5.896;2022-09-09T06:54:04;18.00;84.40
66936;DHT22;53847;51.984;5.896;2022-09-09T06:56:38;18.00;84.20
66936;DHT22;53847;51.984;5.896;2022-09-09T06:59:09;18.00;84.30
66936;DHT22;53847;51.984;5.896;2022-09-09T07:01:38;17.70;85.00
66936;DHT22;53847;51.984;5.896;2022-09-09T07:04:08;18.20;85.30
66936;DHT22;53847;51.984;5.896;2022-09-09T07:06:39;18.40;85.20
66936;DHT22;53847;51.984;5.896;2022-09-09T07:09:09;18.20;84.90
66936;DHT22;53847;51.984;5.896;2022-09-09T07:11:45;18.50;84.50
66936;DHT22;53847;51.984;5.896;2022-09-09T07:14:12;18.50;83.30
66936;DHT22;53847;51.984;5.896;2022-09-09T07:16:40;18.90;82.60
66936;DHT22;53847;51.984;5.896;2022-09-09T07:19:06;18.90;82.20
66936;DHT22;53847;51.984;5.896;2022-09-09T07:21:33;18.90;81.70
66936;DHT22;53847;51.984;5.896;2022-09-09T07:24:00;19.00;81.30
66936;DHT22;53847;51.984;5.896;2022-09-09T07:26:29;19.00;81.00
66936;DHT22;53847;51.984;5.896;2022-09-09T07:28:57;18.80;80.70
66936;DHT22;53847;51.984;5.896;2022-09-09T07:31:29;18.50;80.50
66936;DHT22;53847;51.984;5.896;2022-09-09T07:33:56;18.90;80.90
66936;DHT22;53847;51.984;5.896;2022-09-09T07:36:27;18.80;80.50
66936;DHT22;53847;51.984;5.896;2022-09-09T07:39:00;18.70;81.00
66936;DHT22;53847;51.984;5.896;2022-09-09T07:41:39;18.80;81.10
66936;DHT22;53847;51.984;5.896;2022-09-09T07:44:15;18.80;80.50
66936;DHT22;53847;51.984;5.896;2022-09-09T07:46:43;18.90;80.40
66936;DHT22;53847;51.984;5.896;2022-09-09T07:49:10;18.50;79.60
66936;DHT22;53847;51.984;5.896;2022-09-09T07:51:39;18.90;79.80
66936;DHT22;53847;51.984;5.896;2022-09-09T07:54:09;18.80;79.80
66936;DHT22;53847;51.984;5.896;2022-09-09T07:56:38;18.70;79.50
66936;DHT22;53847;51.984;5.896;2022-09-09T07:59:05;18.80;79.60
66936;DHT22;53847;51.984;5.896;2022-09-09T08:01:34;18.60;79.60
66936;DHT22;53847;51.984;5.896;2022-09-09T08:04:06;18.70;79.70
66936;DHT22;53847;51.984;5.896;2022-09-09T08:06:38;18.50;79.30
66936;DHT22;53847;51.984;5.896;2022-09-09T08:09:07;18.60;80.00
66936;DHT22;53847;51.984;5.896;2022-09-09T08:11:34;18.50;80.20
66936;DHT22;53847;51.984;5.896;2022-09-09T08:14:01;18.90;79.70
66936;DHT22;53847;51.984;5.896;2022-09-09T08:16:33;18.40;79.00
66936;DHT22;53847;51.984;5.896;2022-09-09T08:19:00;18.60;78.80
66936;DHT22;53847;51.984;5.896;2022-09-09T08:21:28;18.90;79.40
66936;DHT22;53847;51.984;5.896;2022-09-09T08:23:58;18.50;79.10
66936;DHT22;53847;51.984;5.896;2022-09-09T08:26:46;18.80;78.90
66936;DHT22;53847;51.984;5.896;2022-09-09T08:29:13;18.50;79.10
66936;DHT22;53847;51.984;5.896;2022-09-09T08:34:07;18.50;79.20
66936;DHT22;53847;51.984;5.896;2022-09-09T08:36:42;18.50;79.00
66936;DHT22;53847;51.984;5.896;2022-09-09T08:39:11;18.40;79.00
66936;DHT22;53847;51.984;5.896;2022-09-09T08:55:42;18.40;79.60
66936;DHT22;53847;51.984;5.896;2022-09-09T08:58:31;18.50;79.60
66936;DHT22;53847;51.984;5.896;2022-09-09T09:12:25;18.40;77.60
66936;DHT22;53847;51.984;5.896;2022-09-09T09:14:55;18.50;78.00
66936;DHT22;53847;51.984;5.896;2022-09-09T09:17:24;18.80;78.30
66936;DHT22;53847;51.984;5.896;2022-09-09T09:19:51;18.30;77.10
66936;DHT22;53847;51.984;5.896;2022-09-09T09:22:22;18.70;77.10
66936;DHT22;53847;51.984;5.896;2022-09-09T09:24:56;18.70;76.40
66936;DHT22;53847;51.984;5.896;2022-09-09T09:27:35;18.80;76.40
66936;DHT22;53847;51.984;5.896;2022-09-09T09:30:19;19.10;76.20
66936;DHT22;53847;51.984;5.896;2022-09-09T09:32:58;18.80;76.10
66936;DHT22;53847;51.984;5.896;2022-09-09T09:35:25;18.70;75.40
66936;DHT22;53847;51.984;5.896;2022-09-09T09:37:52;18.70;75.50
66936;DHT22;53847;51.984;5.896;2022-09-09T09:40:21;18.80;75.30
66936;DHT22;53847;51.984;5.896;2022-09-09T09:42:53;18.70;75.10
66936;DHT22;53847;51.984;5.896;2022-09-09T09:45:32;18.40;75.40
66936;DHT22;53847;51.984;5.896;2022-09-09T09:48:00;18.60;76.20
66936;DHT22;53847;51.984;5.896;2022-09-09T09:50:27;18.90;76.10
66936;DHT22;53847;51.984;5.896;2022-09-09T09:53:04;18.80;76.10
66936;DHT22;53847;51.984;5.896;2022-09-09T09:55:35;19.00;76.10
66936;DHT22;53847;51.984;5.896;2022-09-09T09:58:06;19.00;76.40
66936;DHT22;53847;51.984;5.896;2022-09-09T10:00:33;19.20;75.90
66936;DHT22;53847;51.984;5.896;2022-09-09T10:03:28;18.90;74.70
66936;DHT22;53847;51.984;5.896;2022-09-09T10:05:58;19.30;73.90
66936;DHT22;53847;51.984;5.896;2022-09-09T10:08:25;19.50;74.50
66936;DHT22;53847;51.984;5.896;2022-09-09T10:11:22;19.30;74.20
66936;DHT22;53847;51.984;5.896;2022-09-09T10:14:07;19.30;73.70
66936;DHT22;53847;51.984;5.896;2022-09-09T10:19:35;19.20;73.60
66936;DHT22;53847;51.984;5.896;2022-09-09T10:25:10;19.10;74.00
66936;DHT22;53847;51.984;5.896;2022-09-09T10:30:23;19.00;74.30
66936;DHT22;53847;51.984;5.896;2022-09-09T10:48:50;19.40;74.20
66936;DHT22;53847;51.984;5.896;2022-09-09T10:51:36;19.30;73.90
66936;DHT22;53847;51.984;5.896;2022-09-09T10:56:42;19.10;75.00
66936;DHT22;53847;51.984;5.896;2022-09-09T10:59:19;19.30;75.40
66936;DHT22;53847;51.984;5.896;2022-09-09T11:01:52;18.70;75.10
66936;DHT22;53847;51.984;5.896;2022-09-09T11:04:30;18.80;74.90
66936;DHT22;53847;51.984;5.896;2022-09-09T11:07:04;19.20;74.80
66936;DHT22;53847;51.984;5.896;2022-09-09T11:09:38;18.80;74.10
66936;DHT22;53847;51.984;5.896;2022-09-09T11:12:05;19.30;74.00
66936;DHT22;53847;51.984;5.896;2022-09-09T11:17:16;19.20;74.00
66936;DHT22;53847;51.984;5.896;2022-09-09T11:19:44;19.10;73.90
66936;DHT22;53847;51.984;5.896;2022-09-09T11:24:57;19.20;75.80
66936;DHT22;53847;51.984;5.896;2022-09-09T11:33:27;18.70;78.80
66936;DHT22;53847;51.984;5.896;2022-09-09T11:38:47;19.20;79.40
66936;DHT22;53847;51.984;5.896;2022-09-09T11:41:16;19.00;78.90
66936;DHT22;53847;51.984;5.896;2022-09-09T11:43:48;19.30;78.80
66936;DHT22;53847;51.984;5.896;2022-09-09T11:46:19;19.50;79.00
66936;DHT22;53847;51.984;5.896;2022-09-09T11:48:58;19.30;78.60
66936;DHT22;53847;51.984;5.896;2022-09-09T11:51:28;19.40;78.50
66936;DHT22;53847;51.984;5.896;2022-09-09T11:54:32;19.40;78.20
66936;DHT22;53847;51.984;5.896;2022-09-09T11:56:59;19.40;77.90
66936;DHT22;53847;51.984;5.896;2022-09-09T11:59:32;19.40;77.10
66936;DHT22;53847;51.984;5.896;2022-09-09T12:02:27;19.40;77.50
66936;DHT22;53847;51.984;5.896;2022-09-09T12:07:56;19.30;79.00
66936;DHT22;53847;51.984;5.896;2022-09-09T12:10:52;19.40;79.30
66936;DHT22;53847;51.984;5.896;2022-09-09T12:13:21;19.40;79.60
66936;DHT22;53847;51.984;5.896;2022-09-09T12:15:52;19.50;79.90
66936;DHT22;53847;51.984;5.896;2022-09-09T12:22:01;19.60;78.10
66936;DHT22;53847;51.984;5.896;2022-09-09T12:29:54;19.50;77.70
66936;DHT22;53847;51.984;5.896;2022-09-09T12:32:25;19.40;77.90
66936;DHT22;53847;51.984;5.896;2022-09-09T12:34:53;19.00;78.00
66936;DHT22;53847;51.984;5.896;2022-09-09T12:37:40;19.40;78.00
66936;DHT22;53847;51.984;5.896;2022-09-09T12:40:29;19.30;78.10
66936;DHT22;53847;51.984;5.896;2022-09-09T12:42:55;19.40;78.50
66936;DHT22;53847;51.984;5.896;2022-09-09T12:45:25;19.40;78.10
66936;DHT22;53847;51.984;5.896;2022-09-09T12:47:56;19.50;78.30
66936;DHT22;53847;51.984;5.896;2022-09-09T12:50:35;19.50;77.90
66936;DHT22;53847;51.984;5.896;2022-09-09T12:53:15;19.50;77.60
66936;DHT22;53847;51.984;5.896;2022-09-09T12:56:00;19.60;77.50
66936;DHT22;53847;51.984;5.896;2022-09-09T12:58:27;19.60;77.30
66936;DHT22;53847;51.984;5.896;2022-09-09T13:00:56;19.50;77.30
66936;DHT22;53847;51.984;5.896;2022-09-09T13:03:22;19.40;77.30
66936;DHT22;53847;51.984;5.896;2022-09-09T13:05:50;19.40;77.40
66936;DHT22;53847;51.984;5.896;2022-09-09T13:08:17;19.50;77.50
66936;DHT22;53847;51.984;5.896;2022-09-09T13:11:11;19.50;77.30
66936;DHT22;53847;51.984;5.896;2022-09-09T13:13:41;19.50;77.60
66936;DHT22;53847;51.984;5.896;2022-09-09T13:16:32;19.40;78.20
66936;DHT22;53847;51.984;5.896;2022-09-09T13:19:08;19.30;79.20
66936;DHT22;53847;51.984;5.896;2022-09-09T13:21:36;19.20;79.90
66936;DHT22;53847;51.984;5.896;2022-09-09T13:26:59;19.30;80.50
66936;DHT22;53847;51.984;5.896;2022-09-09T13:29:26;19.40;80.30
66936;DHT22;53847;51.984;5.896;2022-09-09T13:31:53;19.40;80.20
66936;DHT22;53847;51.984;5.896;2022-09-09T13:34:31;19.50;80.20
66936;DHT22;53847;51.984;5.896;2022-09-09T13:37:06;19.60;79.90
66936;DHT22;53847;51.984;5.896;2022-09-09T13:39:34;19.70;79.60
66936;DHT22;53847;51.984;5.896;2022-09-09T13:42:03;19.70;78.90
66936;DHT22;53847;51.984;5.896;2022-09-09T13:44:34;19.70;78.60
66936;DHT22;53847;51.984;5.896;2022-09-09T13:47:26;20.00;78.30
66936;DHT22;53847;51.984;5.896;2022-09-09T13:49:54;19.80;78.30
66936;DHT22;53847;51.984;5.896;2022-09-09T13:52:20;19.90;78.30
66936;DHT22;53847;51.984;5.896;2022-09-09T13:54:48;19.90;77.90
66936;DHT22;53847;51.984;5.896;2022-09-09T13:57:25;19.90;78.00
66936;DHT22;53847;51.984;5.896;2022-09-09T13:59:53;19.90;77.90
66936;DHT22;53847;51.984;5.896;2022-09-09T14:02:20;19.80;77.40
66936;DHT22;53847;51.984;5.896;2022-09-09T14:04:48;19.80;77.20
66936;DHT22;53847;51.984;5.896;2022-09-09T14:07:16;19.70;77.00
66936;DHT22;53847;51.984;5.896;2022-09-09T14:09:43;19.60;76.70
66936;DHT22;53847;51.984;5.896;2022-09-09T14:12:13;19.60;76.80
66936;DHT22;53847;51.984;5.896;2022-09-09T14:14:40;19.60;77.30
66936;DHT22;53847;51.984;5.896;2022-09-09T14:17:06;19.50;77.60
66936;DHT22;53847;51.984;5.896;2022-09-09T14:19:32;19.50;76.70
66936;DHT22;53847;51.984;5.896;2022-09-09T14:21:59;19.60;76.10
66936;DHT22;53847;51.984;5.896;2022-09-09T14:24:25;19.20;75.60
66936;DHT22;53847;51.984;5.896;2022-09-09T14:26:51;19.70;75.90
66936;DHT22;53847;51.984;5.896;2022-09-09T14:29:17;19.50;76.10
66936;DHT22;53847;51.984;5.896;2022-09-09T14:31:43;19.50;76.20
66936;DHT22;53847;51.984;5.896;2022-09-09T14:34:10;19.30;76.10
66936;DHT22;53847;51.984;5.896;2022-09-09T14:36:36;19.50;76.40
66936;DHT22;53847;51.984;5.896;2022-09-09T14:39:03;19.50;76.50
66936;DHT22;53847;51.984;5.896;2022-09-09T14:41:29;19.40;76.60
66936;DHT22;53847;51.984;5.896;2022-09-09T14:43:56;19.50;77.00
66936;DHT22;53847;51.984;5.896;2022-09-09T14:46:22;19.60;77.10
66936;DHT22;53847;51.984;5.896;2022-09-09T14:48:49;19.60;77.60
66936;DHT22;53847;51.984;5.896;2022-09-09T14:51:21;20.00;77.30
66936;DHT22;53847;51.984;5.896;2022-09-09T14:53:47;19.60;77.20
66936;DHT22;53847;51.984;5.896;2022-09-09T14:56:19;19.80;77.10
66936;DHT22;53847;51.984;5.896;2022-09-09T14:58:45;20.00;77.20
66936;DHT22;53847;51.984;5.896;2022-09-09T15:01:17;20.10;77.50
66936;DHT22;53847;51.984;5.896;2022-09-09T15:03:52;20.00;77.50
66936;DHT22;53847;51.984;5.896;2022-09-09T15:06:19;20.00;77.10
66936;DHT22;53847;51.984;5.896;2022-09-09T15:08:46;20.00;76.80
66936;DHT22;53847;51.984;5.896;2022-09-09T15:11:14;20.10;76.70
66936;DHT22;53847;51.984;5.896;2022-09-09T15:13:41;20.30;76.70
66936;DHT22;53847;51.984;5.896;2022-09-09T15:16:10;20.10;76.30
66936;DHT22;53847;51.984;5.896;2022-09-09T15:18:37;20.10;76.30
66936;DHT22;53847;51.984;5.896;2022-09-09T15:21:03;20.10;76.10
66936;DHT22;53847;51.984;5.896;2022-09-09T15:23:31;19.90;75.80
66936;DHT22;53847;51.984;5.896;2022-09-09T15:25:58;20.10;76.00
66936;DHT22;53847;51.984;5.896;2022-09-09T15:28:24;20.00;76.40
66936;DHT22;53847;51.984;5.896;2022-09-09T15:30:52;20.10;76.70
66936;DHT22;53847;51.984;5.896;2022-09-09T15:33:22;20.00;76.80
66936;DHT22;53847;51.984;5.896;2022-09-09T15:35:48;20.00;77.40
66936;DHT22;53847;51.984;5.896;2022-09-09T15:38:15;19.90;77.50
66936;DHT22;53847;51.984;5.896;2022-09-09T15:40:42;19.80;77.80
66936;DHT22;53847;51.984;5.896;2022-09-09T15:43:09;19.80;78.00
66936;DHT22;53847;51.984;5.896;2022-09-09T15:45:36;19.70;78.10
66936;DHT22;53847;51.984;5.896;2022-09-09T15:48:03;19.40;78.00
66936;DHT22;53847;51.984;5.896;2022-09-09T15:50:30;19.60;78.50
66936;DHT22;53847;51.984;5.896;2022-09-09T15:52:56;19.60;78.80
66936;DHT22;53847;51.984;5.896;2022-09-09T15:55:25;19.60;78.70
66936;DHT22;53847;51.984;5.896;2022-09-09T15:57:51;19.30;78.50
66936;DHT22;53847;51.984;5.896;2022-09-09T16:00:18;19.60;78.30
66936;DHT22;53847;51.984;5.896;2022-09-09T16:02:45;19.50;78.50
66936;DHT22;53847;51.984;5.896;2022-09-09T16:05:12;19.50;78.40
66936;DHT22;53847;51.984;5.896;2022-09-09T16:07:38;19.50;78.70
66936;DHT22;53847;51.984;5.896;2022-09-09T16:10:04;19.60;79.00
66936;DHT22;53847;51.984;5.896;2022-09-09T16:12:30;19.10;77.60
66936;DHT22;53847;51.984;5.896;2022-09-09T16:14:56;19.10;77.60
66936;DHT22;53847;51.984;5.896;2022-09-09T16:17:23;18.70;78.40
66936;DHT22;53847;51.984;5.896;2022-09-09T16:19:54;18.40;79.30
66936;DHT22;53847;51.984;5.896;2022-09-09T16:22:20;18.10;79.70
66936;DHT22;53847;51.984;5.896;2022-09-09T16:24:47;18.20;80.40
66936;DHT22;53847;51.984;5.896;2022-09-09T16:27:13;18.20;80.90
66936;DHT22;53847;51.984;5.896;2022-09-09T16:29:40;18.30;81.20
66936;DHT22;53847;51.984;5.896;2022-09-09T16:32:06;18.30;81.40
66936;DHT22;53847;51.984;5.896;2022-09-09T16:34:33;18.30;82.10
66936;DHT22;53847;51.984;5.896;2022-09-09T16:37:00;18.20;83.20
66936;DHT22;53847;51.984;5.896;2022-09-09T16:39:26;18.40;83.00
66936;DHT22;53847;51.984;5.896;2022-09-09T16:41:53;18.60;83.90
66936;DHT22;53847;51.984;5.896;2022-09-09T16:44:20;18.10;83.80
66936;DHT22;53847;51.984;5.896;2022-09-09T16:46:48;18.30;84.10
66936;DHT22;53847;51.984;5.896;2022-09-09T16:49:15;18.60;84.10
66936;DHT22;53847;51.984;5.896;2022-09-09T16:51:47;18.60;84.60
66936;DHT22;53847;51.984;5.896;2022-09-09T16:54:15;18.60;84.70
66936;DHT22;53847;51.984;5.896;2022-09-09T16:56:44;18.40;84.40
66936;DHT22;53847;51.984;5.896;2022-09-09T16:59:18;18.30;84.40
66936;DHT22;53847;51.984;5.896;2022-09-09T17:01:47;18.00;84.40
66936;DHT22;53847;51.984;5.896;2022-09-09T17:04:16;18.30;84.60
66936;DHT22;53847;51.984;5.896;2022-09-09T17:06:48;18.30;84.40
66936;DHT22;53847;51.984;5.896;2022-09-09T17:09:16;18.30;84.20
66936;DHT22;53847;51.984;5.896;2022-09-09T17:11:43;18.10;84.00
66936;DHT22;53847;51.984;5.896;2022-09-09T17:14:15;18.30;84.10
66936;DHT22;53847;51.984;5.896;2022-09-09T17:16:42;18.10;84.00
66936;DHT22;53847;51.984;5.896;2022-09-09T17:19:09;18.30;84.10
66936;DHT22;53847;51.984;5.896;2022-09-09T17:21:36;18.50;84.40
66936;DHT22;53847;51.984;5.896;2022-09-09T17:24:03;18.00;84.30
66936;DHT22;53847;51.984;5.896;2022-09-09T17:26:31;18.30;84.60
66936;DHT22;53847;51.984;5.896;2022-09-09T17:28:59;17.90;84.30
66936;DHT22;53847;51.984;5.896;2022-09-09T17:31:28;18.30;84.40
66936;DHT22;53847;51.984;5.896;2022-09-09T17:33:56;18.20;84.20
66936;DHT22;53847;51.984;5.896;2022-09-09T17:36:26;18.20;84.00
66936;DHT22;53847;51.984;5.896;2022-09-09T17:38:53;18.20;84.00
66936;DHT22;53847;51.984;5.896;2022-09-09T17:41:23;18.00;83.80
66936;DHT22;53847;51.984;5.896;2022-09-09T17:43:50;18.10;84.00
66936;DHT22;53847;51.984;5.896;2022-09-09T17:46:22;17.90;83.80
66936;DHT22;53847;51.984;5.896;2022-09-09T17:48:50;18.00;83.80
66936;DHT22;53847;51.984;5.896;2022-09-09T17:51:22;17.70;83.50